New Bremen, OH (45869)

12:04 AM EDT on July 03, 2015 (GMT -0400)
Southmore shores | | Change Station
CLOSE
Current Station
Personal Weather Station
Location: Saint Marys, OH
Elevation: 869 ft
Nearby Weather Stations

Elev 869 ft 40.51 °N, 84.43 °W | Updated 4 minutes ago

Partly Cloudy
Partly Cloudy
63.5 °F
Feels Like 63.5 °F
N
1.6
Wind Variable Wind from NNW
Gusts 6.9 mph

Today
High -- | Low -- °F
--% Chance of Precip.
Yesterday
High -- | Low -- °F
Precip. -- in
6:11 AM 9:11 PM
Full, 99% visible
Pressure 29.97 in
Visibility 10.0 miles
Clouds Scattered Clouds 6000 ft
Dew Point 58 °F
Humidity 82%
Rainfall in
Snow Depth Not available.
UV 0 out of 12
Pollen 3.50 out of 12
Air Quality Not available.
Flu Activity Not available.
METAR KVES 030355Z AUTO 07003KT 10SM SCT060 17/15 A2997 RMK AO2

More Conditions Fewer Conditions

Pressure 29.97 in
Visibility 10.0 miles
Clouds Scattered Clouds 6000 ft
Dew Point 58 °F
Humidity 82%
Rainfall in
Snow Depth Not available.
UV 0 out of 12
Pollen 3.50 out of 12
Air Quality Not available.
Flu Activity Not available.
METAR KVES 030355Z AUTO 07003KT 10SM SCT060 17/15 A2997 RMK AO2

More Conditions Fewer Conditions

10-Day Weather Forecast

×

Almanac

Astronomy

Jul. 03, 2015 Rise Set
Actual Time
Civil Twilight
Nautical Twilight
Astronomical Twilight
Moon
Length of Visible Light
Length of Day
Tomorrow will be .
, % of the Moon is Illuminated

Today's Extremes

State Highs State Lows

Community

WunderPhotos

Upload Photos

1,834,619 photos uploaded!

WunderBlogs® & News

Nearby

Air Quality

  Air Quality AQ Index Pollutant
Not available.

Snow Depth

Station Depth Elevation

Earthquake Activity

City Distance Mag. Time & Date
Minimum magnitude displayed is 2.5.

Coastal Water Temperatures

Place Temperature

Stations

Nearby Weather Stations

Station Location Temp. Windchill Dew Point Humidity Wind Precip. Elev Updated Type